スィクティフカル の空港の天気 - METARとTAF

Syktyvkar ( UUYY / SCW ) - ロシア スィクティフカル
飛行場実況気象(Metar)
観測時間05/26 03:00 MSK (05/26 00:00 UTC)
風向・風速静穏 0m/s
視程450m
天気現象
なし
気温5℃
湿度100%
気圧1026hPa
METARUUYY 260000Z 00000MPS 0450 0250SW R36/0250N FG NSC 05/05 Q1026 R36/CLRD61 TEMPO 0300 FG RMK QFE761/1014
過去の天気等 Google飛行場航空写真 Wunderground天気予報

過去48時間のMETAR

飛行場予報(TAF)
発表時間: 5/26 02:00 MSK (5/25 23:00 UTC)
予報対象時間: 26日3時 MSK ~ 27日3時 MSK
風向・風速西 3m/s
視程6000m
全天の8割程度の雲 雲底高度 490m
全天の8割程度の積乱雲 雲底高度 610m
26日3時 MSK ~ 26日7時 MSK に一時的に
風向・風速不定 1m/s
視程300m
天気現象
全天を覆う雲 鉛直視程 60m
26日7時 MSK から
風向・風速西南西 3m/s 瞬間風速 8m/s
視程10km以上
全天の8割程度の雲 雲底高度 490m
全天の4割程度の積乱雲 雲底高度 610m
26日7時 MSK ~ 27日3時 MSK に一時的に
視程6000m
天気現象弱いしゅう雨
少しの雲 雲底高度 340m
全天の8割程度の積乱雲 雲底高度 490m
26日19時 MSK ~ 26日20時 MSK に徐々に
風向・風速南 3m/s
TAF UUYY 252300Z 2600/2624 26003MPS 6000 BKN016 BKN020CB
TEMPO 2600/2604 VRB01MPS 0300 FG VV002
FM260400 24003G08MPS 9999 BKN016 SCT020CB
TEMPO 2604/2624 6000 -SHRA FEW011 BKN016CB
BECMG 2616/2617 18003MPS